createdAt,value
2022-11-30T00:02:28.220Z,101110.41
2022-11-30T00:05:35.066Z,101103.59
2022-11-30T00:08:41.976Z,101102.25
2022-11-30T00:11:47.862Z,101107.81
2022-11-30T00:14:53.044Z,101102.84
2022-11-30T00:18:01.088Z,101102.34
2022-11-30T00:21:11.895Z,101100.56
2022-11-30T00:24:16.536Z,101100.28
2022-11-30T00:27:24.090Z,101105.59
2022-11-30T00:30:30.770Z,101095.03
2022-11-30T00:33:39.198Z,101094.09
2022-11-30T00:36:46.954Z,101093.66
2022-11-30T00:39:55.894Z,101091.56
2022-11-30T00:43:04.329Z,101088.03
2022-11-30T00:46:11.929Z,101095.47
2022-11-30T00:49:19.934Z,101098.63
2022-11-30T00:52:26.765Z,101100.84
2022-11-30T00:55:36.713Z,101099.91
2022-11-30T00:58:44.717Z,101108.34
2022-11-30T01:01:57.632Z,101101.47
2022-11-30T01:05:07.026Z,101097.38
2022-11-30T01:08:16.341Z,101095.31
2022-11-30T01:11:25.144Z,101095.84
2022-11-30T01:14:32.612Z,101093.06
2022-11-30T01:17:38.510Z,101083.44
2022-11-30T01:20:45.090Z,101091.94
2022-11-30T01:23:52.628Z,101094.53
2022-11-30T01:27:04.313Z,101094.37
2022-11-30T01:30:10.221Z,101100.66
2022-11-30T01:33:22.653Z,101094.25
2022-11-30T01:36:30.540Z,101099.44
2022-11-30T01:39:37.657Z,101102.41
2022-11-30T01:42:47.483Z,101090.56
2022-11-30T01:46:00.998Z,101099.28
2022-11-30T01:49:12.692Z,101090.25
2022-11-30T01:52:25.236Z,101091.59
2022-11-30T01:55:36.849Z,101090.06
2022-11-30T01:58:44.717Z,101082.72
2022-11-30T02:01:54.884Z,101081.81
2022-11-30T02:05:02.677Z,101082.84
2022-11-30T02:08:10.399Z,101091.31
2022-11-30T02:11:18.281Z,101082.72
2022-11-30T02:14:25.063Z,101088.53
2022-11-30T02:17:39.156Z,101085.84
2022-11-30T02:20:47.218Z,101091.69
2022-11-30T02:24:22.304Z,101089.09
2022-11-30T02:27:37.681Z,101084.19
2022-11-30T02:30:49.627Z,101084.66
2022-11-30T02:33:58.344Z,101081.28
2022-11-30T02:37:07.109Z,101085.28
2022-11-30T02:40:17.869Z,101083.12
2022-11-30T02:43:28.625Z,101074.09
2022-11-30T02:46:59.434Z,101064.37
2022-11-30T02:50:09.366Z,101065.44
2022-11-30T02:53:17.135Z,101058.47
2022-11-30T02:56:25.221Z,101054.97
2022-11-30T02:59:32.344Z,101059.41
2022-11-30T03:02:40.887Z,101054.81
2022-11-30T03:05:48.435Z,101061.28
2022-11-30T03:09:00.319Z,101063.91
2022-11-30T03:12:06.943Z,101069.47
2022-11-30T03:15:13.881Z,101069.94
2022-11-30T03:18:22.433Z,101069.19
2022-11-30T03:21:29.353Z,101060.22
2022-11-30T03:24:35.168Z,101056.31
2022-11-30T03:27:42.340Z,101064.19
2022-11-30T03:30:54.267Z,101064.06
2022-11-30T03:34:04.647Z,101068.47
2022-11-30T03:37:12.955Z,101073.47
2022-11-30T03:40:21.419Z,101077.25
2022-11-30T03:43:29.111Z,101074.81
2022-11-30T03:46:36.247Z,101084.84
2022-11-30T03:49:42.882Z,101084.84
2022-11-30T03:52:51.145Z,101077.72
2022-11-30T03:56:05.069Z,101079.81
2022-11-30T03:59:12.713Z,101082.03
2022-11-30T04:02:20.463Z,101073.03
2022-11-30T04:05:29.019Z,101071.66
2022-11-30T04:09:03.031Z,101073.47
2022-11-30T04:12:10.489Z,101085.41
2022-11-30T04:15:16.341Z,101074.81
2022-11-30T04:18:25.488Z,101072.41
2022-11-30T04:21:30.508Z,101082.03
2022-11-30T04:24:39.672Z,101071.34
2022-11-30T04:27:49.278Z,101068.00
2022-11-30T04:31:03.161Z,101068.09
2022-11-30T04:34:11.090Z,101067.56
2022-11-30T04:37:19.675Z,101074.88
2022-11-30T04:40:26.680Z,101075.53
2022-11-30T04:43:35.773Z,101080.87
2022-11-30T04:46:41.711Z,101080.87
2022-11-30T04:49:50.872Z,101084.53
2022-11-30T04:52:58.199Z,101077.97
2022-11-30T04:56:10.608Z,101084.13
2022-11-30T04:59:18.268Z,101083.22
2022-11-30T05:02:26.682Z,101075.03
2022-11-30T05:05:34.687Z,101076.72
2022-11-30T05:08:41.496Z,101075.34
2022-11-30T05:11:50.500Z,101074.50
2022-11-30T05:14:59.082Z,101080.91
2022-11-30T05:18:04.702Z,101075.25
2022-11-30T05:21:12.720Z,101071.56
2022-11-30T05:24:18.309Z,101084.66
2022-11-30T05:27:28.697Z,101081.75
2022-11-30T05:30:36.076Z,101080.19
2022-11-30T05:33:46.085Z,101082.78
2022-11-30T05:36:52.758Z,101085.81
2022-11-30T05:40:04.872Z,101086.78
2022-11-30T05:43:10.831Z,101093.59
2022-11-30T05:46:17.797Z,101097.19
2022-11-30T05:49:23.358Z,101092.66
2022-11-30T05:52:28.866Z,101101.69
2022-11-30T05:55:35.127Z,101096.12
2022-11-30T05:58:40.365Z,101101.37
2022-11-30T06:01:44.921Z,101095.69
2022-11-30T06:04:48.746Z,101099.06
2022-11-30T06:07:53.064Z,101097.19
2022-11-30T06:11:00.347Z,101092.13
2022-11-30T06:14:02.909Z,101089.22
2022-11-30T06:17:05.945Z,101095.50
2022-11-30T06:20:09.564Z,101099.06
2022-11-30T06:23:12.370Z,101111.25
2022-11-30T06:26:14.957Z,101107.06
2022-11-30T06:29:17.753Z,101105.69
2022-11-30T06:32:20.195Z,101108.94
2022-11-30T06:35:22.954Z,101117.56
2022-11-30T06:38:26.190Z,101118.63
2022-11-30T06:41:29.153Z,101120.72
2022-11-30T06:44:31.549Z,101129.41
2022-11-30T06:47:34.682Z,101134.34
2022-11-30T06:50:37.521Z,101137.28
2022-11-30T06:53:43.666Z,101132.34
2022-11-30T06:56:48.476Z,101132.16
2022-11-30T06:59:52.737Z,101133.09
2022-11-30T07:02:55.715Z,101132.03
2022-11-30T07:05:58.738Z,101130.16
2022-11-30T07:09:01.494Z,101124.19
2022-11-30T07:12:05.126Z,101120.91
2022-11-30T07:15:08.424Z,101118.91
2022-11-30T07:18:12.440Z,101133.31
2022-11-30T07:21:15.883Z,101129.53
2022-11-30T07:24:38.983Z,101127.19
2022-11-30T07:27:44.101Z,101127.19
2022-11-30T07:30:48.463Z,101134.34
2022-11-30T07:33:51.950Z,101129.81
2022-11-30T07:36:56.948Z,101133.91
2022-11-30T07:40:00.312Z,101120.16
2022-11-30T07:43:04.859Z,101126.16
2022-11-30T07:46:08.109Z,101118.97
2022-11-30T07:49:13.565Z,101124.63
2022-11-30T07:52:18.395Z,101127.75
2022-11-30T07:55:24.642Z,101122.16
2022-11-30T07:58:31.026Z,101124.81
2022-11-30T08:01:35.034Z,101119.84
2022-11-30T08:04:38.679Z,101124.78
2022-11-30T08:07:43.383Z,101128.81
2022-11-30T08:10:48.235Z,101126.81
2022-11-30T08:13:52.596Z,101125.72
2022-11-30T08:16:55.738Z,101125.50
2022-11-30T08:20:00.185Z,101127.44
2022-11-30T08:23:05.112Z,101128.94
2022-11-30T08:26:10.123Z,101129.91
2022-11-30T08:29:16.191Z,101134.38
2022-11-30T08:32:21.168Z,101122.19
2022-11-30T08:35:25.732Z,101118.44
2022-11-30T08:38:29.398Z,101115.84
2022-11-30T08:41:36.114Z,101117.84
2022-11-30T08:44:40.991Z,101116.53
2022-11-30T08:47:44.586Z,101106.72
2022-11-30T08:50:49.194Z,101109.47
2022-11-30T08:53:53.609Z,101115.31
2022-11-30T08:56:57.390Z,101118.47
2022-11-30T09:00:01.620Z,101106.44
2022-11-30T09:03:05.975Z,101108.50
2022-11-30T09:06:11.117Z,101112.25
2022-11-30T09:09:14.686Z,101105.44
2022-11-30T09:12:18.571Z,101116.53
2022-11-30T09:15:21.854Z,101107.38
2022-11-30T09:18:25.621Z,101108.84
2022-11-30T09:21:29.155Z,101099.91
2022-11-30T09:24:33.363Z,101105.47
2022-11-30T09:27:36.066Z,101103.97
2022-11-30T09:30:40.793Z,101107.81
2022-11-30T09:33:46.268Z,101113.16
2022-11-30T09:36:50.259Z,101112.13
2022-11-30T09:39:53.802Z,101107.81
2022-11-30T09:43:03.033Z,101110.38
2022-11-30T09:46:07.333Z,101102.59
2022-11-30T09:49:23.986Z,101110.41
2022-11-30T09:52:33.383Z,101112.41
2022-11-30T09:55:39.939Z,101111.22
2022-11-30T09:58:48.049Z,101110.59
2022-11-30T10:01:56.926Z,101102.81
2022-11-30T10:05:01.278Z,101101.75
2022-11-30T10:08:13.818Z,101107.78
2022-11-30T10:11:38.172Z,101097.34
2022-11-30T10:15:08.344Z,101105.78
2022-11-30T10:18:16.095Z,101096.47
2022-11-30T10:21:25.310Z,101098.81
2022-11-30T10:24:41.348Z,101103.44
2022-11-30T10:27:54.408Z,101094.81
2022-11-30T10:31:01.009Z,101092.84
2022-11-30T10:34:21.390Z,101085.22
2022-11-30T10:37:33.619Z,101083.00
2022-11-30T10:40:39.969Z,101081.59
2022-11-30T10:43:54.485Z,101073.19
2022-11-30T10:47:00.734Z,101067.25
2022-11-30T10:50:06.263Z,101076.88
2022-11-30T10:53:10.535Z,101078.44
2022-11-30T10:56:14.739Z,101075.13
2022-11-30T10:59:36.634Z,101071.06
2022-11-30T11:02:40.081Z,101069.62
2022-11-30T11:05:43.038Z,101061.56
2022-11-30T11:08:47.255Z,101051.13
2022-11-30T11:12:17.308Z,101060.66
2022-11-30T11:15:23.438Z,101059.88
2022-11-30T11:18:27.948Z,101055.47
2022-11-30T11:21:32.878Z,101051.97
2022-11-30T11:24:36.530Z,101053.44
2022-11-30T11:27:44.877Z,101048.41
2022-11-30T11:30:48.911Z,101059.19
2022-11-30T11:33:54.385Z,101048.50
2022-11-30T11:37:08.256Z,101044.69
2022-11-30T11:40:16.335Z,101052.62
2022-11-30T11:43:19.081Z,101054.03
2022-11-30T11:46:22.308Z,101055.38
2022-11-30T11:49:38.129Z,101057.44
2022-11-30T11:52:41.374Z,101055.38
2022-11-30T11:55:45.051Z,101051.78
2022-11-30T11:58:51.764Z,101048.25
2022-11-30T12:01:58.483Z,101061.38
2022-11-30T12:05:07.902Z,101048.84
2022-11-30T12:08:26.230Z,101052.94
2022-11-30T12:11:38.939Z,101055.16
2022-11-30T12:14:41.391Z,101061.00
2022-11-30T12:17:50.382Z,101058.28
2022-11-30T12:20:58.591Z,101049.16
2022-11-30T12:24:20.282Z,101039.69
2022-11-30T12:27:42.592Z,101039.63
2022-11-30T12:30:54.438Z,101047.56
2022-11-30T12:34:10.696Z,101049.00
2022-11-30T12:37:20.107Z,101038.25
2022-11-30T12:40:52.982Z,101037.94
2022-11-30T12:43:57.188Z,101032.03
2022-11-30T12:47:00.369Z,101030.44
2022-11-30T12:50:22.979Z,101035.09
2022-11-30T12:53:33.013Z,101034.31
2022-11-30T12:56:48.124Z,101031.06
2022-11-30T13:00:07.568Z,101029.16
2022-11-30T13:03:24.760Z,101026.91
2022-11-30T13:06:33.225Z,101035.19
2022-11-30T13:09:49.679Z,101029.03
2022-11-30T13:12:53.748Z,101027.88
2022-11-30T13:15:59.857Z,101016.91
2022-11-30T13:19:29.912Z,101018.75
2022-11-30T13:22:42.790Z,101020.34
2022-11-30T13:26:08.651Z,101024.22
2022-11-30T13:29:45.230Z,101024.28
2022-11-30T13:32:57.883Z,101028.12
2022-11-30T13:36:05.775Z,101027.53
2022-11-30T13:39:15.187Z,101024.22
2022-11-30T13:42:38.937Z,101014.44
2022-11-30T13:45:42.595Z,101021.62
2022-11-30T13:48:46.240Z,101022.47
2022-11-30T13:52:13.688Z,101024.22
2022-11-30T13:55:33.647Z,101030.16
2022-11-30T13:58:57.978Z,101026.22
2022-11-30T14:02:20.014Z,101032.75
2022-11-30T14:05:25.602Z,101033.53
2022-11-30T14:08:31.586Z,101024.19
2022-11-30T14:11:40.566Z,101029.81
2022-11-30T14:14:46.350Z,101032.47
2022-11-30T14:17:57.479Z,101030.75
2022-11-30T14:21:04.000Z,101034.59
2022-11-30T14:24:16.858Z,101032.31
2022-11-30T14:27:28.308Z,101031.53
2022-11-30T14:30:33.661Z,101026.87
2022-11-30T14:33:42.200Z,101038.50
2022-11-30T14:36:51.056Z,101034.31
2022-11-30T14:39:58.596Z,101026.78
2022-11-30T14:43:03.212Z,101027.75
2022-11-30T14:46:10.286Z,101031.47
2022-11-30T14:49:17.958Z,101028.00
2022-11-30T14:52:26.147Z,101027.16
2022-11-30T14:55:41.052Z,101032.25
2022-11-30T14:58:44.488Z,101026.13
2022-11-30T15:01:48.709Z,101023.22
2022-11-30T15:04:53.690Z,101020.97
2022-11-30T15:07:57.676Z,101028.53
2022-11-30T15:11:20.481Z,101023.53
2022-11-30T15:14:25.172Z,101020.63
2022-11-30T15:17:28.960Z,101022.22
2022-11-30T15:20:40.102Z,101018.75
2022-11-30T15:23:50.679Z,101015.25
2022-11-30T15:27:08.766Z,101022.47
2022-11-30T15:30:15.577Z,101021.06
2022-11-30T15:33:21.298Z,101026.09
2022-11-30T15:36:33.381Z,101015.06
2022-11-30T15:39:39.378Z,101011.97
2022-11-30T15:42:47.596Z,101017.63
2022-11-30T15:45:59.612Z,101023.03
2022-11-30T15:49:06.619Z,101017.50
2022-11-30T15:52:15.209Z,101028.50
2022-11-30T15:55:38.540Z,101020.84
2022-11-30T15:58:46.709Z,101020.59
2022-11-30T16:02:05.109Z,101024.09
2022-11-30T16:05:16.398Z,101015.00
2022-11-30T16:08:21.419Z,101015.72
2022-11-30T16:11:26.996Z,101015.81
2022-11-30T16:14:34.064Z,101005.66
2022-11-30T16:17:39.372Z,101001.81
2022-11-30T16:20:45.293Z,101002.19
2022-11-30T16:23:49.969Z,101001.34
2022-11-30T16:26:53.775Z,101008.56
2022-11-30T16:29:58.404Z,101007.47
2022-11-30T16:33:02.877Z,101004.50
2022-11-30T16:36:09.429Z,101003.03
2022-11-30T16:39:15.260Z,101009.03
2022-11-30T16:42:19.790Z,101016.31
2022-11-30T16:45:26.428Z,101010.34
2022-11-30T16:48:33.067Z,101001.12
2022-11-30T16:51:39.251Z,100998.12
2022-11-30T16:54:46.897Z,100997.19
2022-11-30T16:57:54.883Z,101002.69
2022-11-30T17:01:02.176Z,100999.47
2022-11-30T17:04:17.983Z,101010.81
2022-11-30T17:07:26.217Z,101009.38
2022-11-30T17:10:34.303Z,101012.50
2022-11-30T17:13:39.527Z,101018.09
2022-11-30T17:16:46.690Z,101014.75
2022-11-30T17:19:55.423Z,101013.44
2022-11-30T17:23:05.090Z,101014.38
2022-11-30T17:26:12.067Z,101027.41
2022-11-30T17:29:19.026Z,101012.94
2022-11-30T17:32:24.344Z,101009.94
2022-11-30T17:35:31.819Z,101015.53
2022-11-30T17:38:36.830Z,101023.06
2022-11-30T17:41:43.197Z,101023.22
2022-11-30T17:44:50.851Z,101023.31
2022-11-30T17:47:55.670Z,101022.25
2022-11-30T17:51:01.694Z,101025.97
2022-11-30T17:54:06.685Z,101034.72
2022-11-30T17:57:11.734Z,101040.81
2022-11-30T18:00:17.146Z,101027.97
2022-11-30T18:03:26.351Z,101036.97
2022-11-30T18:06:32.106Z,101033.97
2022-11-30T18:09:43.104Z,101041.03
2022-11-30T18:12:52.225Z,101034.94
2022-11-30T18:16:08.789Z,101037.31
2022-11-30T18:19:16.351Z,101044.25
2022-11-30T18:22:23.222Z,101039.59
2022-11-30T18:25:31.364Z,101031.81
2022-11-30T18:28:38.648Z,101034.56
2022-11-30T18:31:46.582Z,101039.84
2022-11-30T18:34:53.842Z,101033.37
2022-11-30T18:37:59.441Z,101033.25
2022-11-30T18:41:06.455Z,101041.59
2022-11-30T18:44:14.298Z,101039.66
2022-11-30T18:47:21.684Z,101037.88
2022-11-30T18:50:27.851Z,101039.53
2022-11-30T18:53:35.372Z,101033.44
2022-11-30T18:56:41.786Z,101044.16
2022-11-30T18:59:48.705Z,101041.00
2022-11-30T19:02:56.603Z,101044.16
2022-11-30T19:06:05.101Z,101035.19
2022-11-30T19:09:15.052Z,101030.09
2022-11-30T19:12:20.061Z,101038.91
2022-11-30T19:15:24.574Z,101042.62
2022-11-30T19:18:28.070Z,101041.88
2022-11-30T19:21:33.518Z,101037.13
2022-11-30T19:24:38.699Z,101040.50
2022-11-30T19:27:44.687Z,101046.78
2022-11-30T19:30:50.177Z,101038.81
2022-11-30T19:33:56.355Z,101053.44
2022-11-30T19:37:04.978Z,101050.41
2022-11-30T19:40:09.909Z,101043.31
2022-11-30T19:43:17.740Z,101055.41
2022-11-30T19:46:23.678Z,101053.84
2022-11-30T19:49:29.773Z,101048.59
2022-11-30T19:52:35.852Z,101049.66
2022-11-30T19:55:42.503Z,101059.28
2022-11-30T19:58:48.095Z,101069.62
2022-11-30T20:01:55.830Z,101062.72
2022-11-30T20:05:01.851Z,101058.28
2022-11-30T20:08:06.989Z,101061.88
2022-11-30T20:11:14.809Z,101060.91
2022-11-30T20:14:24.813Z,101059.38
2022-11-30T20:17:29.828Z,101052.88
2022-11-30T20:20:38.773Z,101054.78
2022-11-30T20:23:49.382Z,101048.78
2022-11-30T20:26:55.767Z,101051.56
2022-11-30T20:30:02.999Z,101047.41
2022-11-30T20:33:09.631Z,101046.31
2022-11-30T20:36:16.476Z,101046.66
2022-11-30T20:39:23.496Z,101051.59
2022-11-30T20:42:27.489Z,101056.47
2022-11-30T20:45:34.626Z,101049.44
2022-11-30T20:48:41.749Z,101041.16
2022-11-30T20:51:47.723Z,101047.06
2022-11-30T20:54:55.457Z,101046.84
2022-11-30T20:58:02.485Z,101055.84
2022-11-30T21:01:14.284Z,101059.88
2022-11-30T21:04:20.823Z,101047.50
2022-11-30T21:07:28.024Z,101049.19
2022-11-30T21:10:38.358Z,101053.38
2022-11-30T21:13:49.337Z,101053.16
2022-11-30T21:16:56.357Z,101061.44
2022-11-30T21:20:04.963Z,101062.81
2022-11-30T21:23:08.702Z,101058.00
2022-11-30T21:26:16.185Z,101063.25
2022-11-30T21:29:21.492Z,101063.13
2022-11-30T21:32:24.677Z,101066.81
2022-11-30T21:35:29.201Z,101068.59
2022-11-30T21:38:36.355Z,101078.09
2022-11-30T21:41:41.392Z,101073.75
2022-11-30T21:44:47.643Z,101079.00
2022-11-30T21:47:52.367Z,101088.03
2022-11-30T21:51:00.694Z,101094.13
2022-11-30T21:54:07.194Z,101095.16
2022-11-30T21:57:12.470Z,101098.97
2022-11-30T22:00:18.925Z,101103.16
2022-11-30T22:03:25.753Z,101111.97
2022-11-30T22:06:32.696Z,101105.91
2022-11-30T22:09:38.057Z,101105.38
2022-11-30T22:12:45.719Z,101109.69
2022-11-30T22:15:58.978Z,101108.94
2022-11-30T22:19:07.663Z,101102.84
2022-11-30T22:22:14.796Z,101104.63
2022-11-30T22:25:24.060Z,101115.13
2022-11-30T22:28:31.264Z,101110.63
2022-11-30T22:31:37.318Z,101105.38
2022-11-30T22:34:43.091Z,101100.12
2022-11-30T22:37:49.015Z,101106.41
2022-11-30T22:40:58.351Z,101098.00
2022-11-30T22:44:05.151Z,101094.25
2022-11-30T22:47:09.105Z,101085.63
2022-11-30T22:50:14.579Z,101082.16
2022-11-30T22:53:18.569Z,101080.69
2022-11-30T22:56:26.567Z,101084.69
2022-11-30T22:59:31.670Z,101080.06
2022-11-30T23:02:35.879Z,101078.50
2022-11-30T23:05:44.726Z,101083.94
2022-11-30T23:08:52.762Z,101070.09
2022-11-30T23:11:58.150Z,101077.13
2022-11-30T23:15:03.399Z,101078.00
2022-11-30T23:18:07.552Z,101075.47
2022-11-30T23:21:14.390Z,101066.75
2022-11-30T23:24:21.326Z,101071.91
2022-11-30T23:27:25.629Z,101074.72
2022-11-30T23:30:31.863Z,101079.78
2022-11-30T23:33:37.466Z,101066.53
2022-11-30T23:36:43.312Z,101063.69
2022-11-30T23:39:48.832Z,101067.37
2022-11-30T23:42:54.685Z,101054.37
2022-11-30T23:45:57.308Z,101060.47
2022-11-30T23:49:04.077Z,101062.44
2022-11-30T23:52:09.941Z,101064.00
2022-11-30T23:55:15.305Z,101062.62
2022-11-30T23:58:23.199Z,101072.94
